KISM/ISM METAR and TAF weather

Enter ICAO airport designator
Station Type Date Time Source
KISM METAR 2022/05/25 00:56 UTC NOAA

KISM 250056Z 11010KT 10SM CLR 27/19 A3005 RMK AO2 SLP177 T02670194 PNO $


Station Type Date Time Source
KISM Decoded METAR 2022/05/25 00:56 UTC NOAA

Orlando, Kissimmee Municipal Airport, FL, United States (KISM) 28-17-23N 081-26-14W
May 24, 2022 - 08:56 PM EDT / 2022.05.25 0056 UTC
Wind: from the ESE (110 degrees) at 12 MPH (10 KT):0
Visibility: 10 mile(s):0
Sky conditions: clear
Temperature: 80.1 F (26.7 C)
Dew Point: 66.9 F (19.4 C)
Relative Humidity: 64%
Pressure (altimeter): 30.05 in. Hg (1017 hPa)
ob: KISM 250056Z 11010KT 10SM CLR 27/19 A3005 RMK AO2 SLP177 T02670194 PNO
cycle: 1

Station Type Date Time Source
KISM TAF 2022/05/24 18:24 UTC NOAA

TAF KISM 241722Z 2418/2518 15008KT P6SM SCT040 SCT250
FM242000 11011KT P6SM SCT050 SCT250
FM250200 11004KT P6SM SCT050 SCT250
FM251400 13011KT P6SM SCT045 SCT250

Example: see airport list